Amy B — WDI7307 — position and weather

sailwx.info

Track history (hours):
 
Tides and Currents Weather Stations Pressure Air Temp Water Temp Dewpoint Dewpoint Depression Visibility Wind Speed Wind Dir Waves Ship Positions

Amy B

Owner: WCP, Inc, Wilsonville, OR. More information available from US FCC via Universal Licensing System and Coast Guard Vessel Documentation Center.

Last reported at 2018-Jun-22 16:58 UTC. Time now 2018-Jun-22 17:07 UTC.
Position N 45°34' W 122°44'.

Length 21 m; draft 2.5 m.

Type: Towing. MMSI: 367727410.

Date/timePositionNaut miles runAvg speedWind from/ knotsBaromVisibWave heightAir tempDewpointWater temp
2018-Jun-22 16:58N 45°34' W 122°44'0 0.0
2018-Jun-22 16:22N 45°34' W 122°44'0 0.0
2018-Jun-22 15:58N 45°34' W 122°44'0 0.0
2018-Jun-22 15:28N 45°34' W 122°44'0 0.0
2018-Jun-22 14:52N 45°34' W 122°44'0 0.0
2018-Jun-22 14:25N 45°34' W 122°44'1 3.3
2018-Jun-22 14:00N 45°35' W 122°45'3 5.9
2018-Jun-22 13:30N 45°37' W 122°48'2 4.9
2018-Jun-22 13:00N 45°39' W 122°50'3 4.7
2018-Jun-22 12:27N 45°41' W 122°52'2 4.9
2018-Jun-22 12:00N 45°43' W 122°52'2 4.3
2018-Jun-22 11:30N 45°45' W 122°50'2 3.9
2018-Jun-22 11:00N 45°47' W 122°49'2 3.5
2018-Jun-22 10:30N 45°48' W 122°49'1 2.4
2018-Jun-22 10:00N 45°48' W 122°51'0 0.1
2018-Jun-22 09:30N 45°48' W 122°51'0 0.0
2018-Jun-22 08:57N 45°48' W 122°51'0 0.0
2018-Jun-22 08:18N 45°48' W 122°51'0 0.0
2018-Jun-22 07:57N 45°48' W 122°51'0 0.0
2018-Jun-22 07:30N 45°48' W 122°51'0 0.0
2018-Jun-22 06:54N 45°48' W 122°51'0 0.0
2018-Jun-22 06:27N 45°48' W 122°51'0 0.0
2018-Jun-22 05:33N 45°48' W 122°51'0 0.0
2018-Jun-22 05:30N 45°48' W 122°51'0 0.0
2018-Jun-22 05:00N 45°48' W 122°51'0 0.0
2018-Jun-22 04:30N 45°48' W 122°51'0 0.0
2018-Jun-22 04:00N 45°48' W 122°51'1 2.1
2018-Jun-22 03:31N 45°48' W 122°50'3 5.9
2018-Jun-22 03:01N 45°51' W 122°48'3 5.5
2018-Jun-22 02:29N 45°48' W 122°47'4 8.9
2018-Jun-22 02:00N 45°44' W 122°46'4 8.8
2018-Jun-22 01:30N 45°40' W 122°46'2 3.5
2018-Jun-22 01:00N 45°39' W 122°44'0 0.0
2018-Jun-22 00:30N 45°39' W 122°44'0 0.0
2018-Jun-21 23:54N 45°39' W 122°44'0 0.0
2018-Jun-21 23:00N 45°39' W 122°44'0 0.0
2018-Jun-21 22:21N 45°39' W 122°44'0 0.0
2018-Jun-21 21:57N 45°39' W 122°44'0 0.0
2018-Jun-21 21:27N 45°39' W 122°44'0 0.0
2018-Jun-21 21:00N 45°39' W 122°44'2 3.5
2018-Jun-21 20:30N 45°40' W 122°46'3 5.2
2018-Jun-21 20:00N 45°42' W 122°46'2 3.4
2018-Jun-21 19:30N 45°44' W 122°46'2 5.0
2018-Jun-21 19:00N 45°46' W 122°46'3 5.1
2018-Jun-21 18:30N 45°49' W 122°48'3 5.1
2018-Jun-21 18:00N 45°51' W 122°47'2 4.1
2018-Jun-21 17:30N 45°50' W 122°49'2 4.0
2018-Jun-21 17:00N 45°48' W 122°50'0 0.4
2018-Jun-21 16:29N 45°48' W 122°51'0 0.0
2018-Jun-21 14:04N 45°48' W 122°51'0 0.0
2018-Jun-21 13:58N 45°48' W 122°51'0 0.0
2018-Jun-21 13:28N 45°48' W 122°51'0 0.1
2018-Jun-21 13:00N 45°48' W 122°51'2 4.5
2018-Jun-21 12:31N 45°49' W 122°49'2 2.5
2018-Jun-21 11:43N 45°48' W 122°47'2 9.2
2018-Jun-21 11:30N 45°46' W 122°46'5 9.2
2018-Jun-21 11:00N 45°42' W 122°46'4 6.0
2018-Jun-21 10:25N 45°39' W 122°44'0 0.0
2018-Jun-21 09:55N 45°39' W 122°44'0 0.0
2018-Jun-21 09:28N 45°39' W 122°44'0 0.0
2018-Jun-21 08:49N 45°39' W 122°44'0 0.0
2018-Jun-21 08:28N 45°39' W 122°44'0 0.0
2018-Jun-21 07:58N 45°39' W 122°44'0 0.0
2018-Jun-21 07:22N 45°39' W 122°44'0 0.0
2018-Jun-21 06:58N 45°39' W 122°44'0 0.0
2018-Jun-21 06:28N 45°39' W 122°44'0 0.0
2018-Jun-21 05:46N 45°39' W 122°44'0 1.1
2018-Jun-21 05:31N 45°39' W 122°44'3 5.1
2018-Jun-21 05:01N 45°41' W 122°46'2 4.2
2018-Jun-21 04:30N 45°43' W 122°46'2 4.7
2018-Jun-21 04:01N 45°45' W 122°46'3 5.0
2018-Jun-21 03:25N 45°48' W 122°47'2 5.4
2018-Jun-21 02:58N 45°50' W 122°47'2 4.6
2018-Jun-21 02:28N 45°53' W 122°48'4 5.4
2018-Jun-21 01:49N 45°49' W 122°49'2 4.4
2018-Jun-21 01:27N 45°48' W 122°50'0 0.3
2018-Jun-21 00:59N 45°48' W 122°50'0 0.1
2018-Jun-20 23:18N 45°48' W 122°51'0 0.0
2018-Jun-20 22:48N 45°48' W 122°51'0 0.0
2018-Jun-20 22:21N 45°48' W 122°51'0 0.0
2018-Jun-20 21:42N 45°48' W 122°51'0 0.0
2018-Jun-20 21:27N 45°48' W 122°51'0 0.0
2018-Jun-20 21:00N 45°48' W 122°51'2 3.1
2018-Jun-20 20:27N 45°49' W 122°50'3 5.8
2018-Jun-20 19:58N 45°52' W 122°48'5 8.3
2018-Jun-20 19:22N 45°47' W 122°46'410.2
2018-Jun-20 19:00N 45°43' W 122°46'4 7.6
2018-Jun-20 18:30N 45°39' W 122°45'4 9.0
2018-Jun-20 18:00N 45°37' W 122°40'5 9.4
2018-Jun-20 17:29N 45°36' W 122°33'4 7.2
2018-Jun-20 16:57N 45°35' W 122°28'1 1.7
2018-Jun-20 16:15N 45°34' W 122°27'0 0.0
2018-Jun-20 15:57N 45°34' W 122°27'0 0.0
2018-Jun-20 15:27N 45°34' W 122°27'0 0.0
2018-Jun-20 14:59N 45°34' W 122°27'0 0.0
2018-Jun-20 14:27N 45°34' W 122°27'0 0.0
2018-Jun-20 13:58N 45°34' W 122°27'0 0.0
2018-Jun-20 13:27N 45°34' W 122°27'0 0.0
2018-Jun-20 12:57N 45°34' W 122°27'0 0.0
2018-Jun-20 11:48N 45°34' W 122°27'1 2.7
2018-Jun-20 11:27N 45°34' W 122°28'1 2.5
2018-Jun-20 11:00N 45°35' W 122°29'2 4.0
2018-Jun-20 10:30N 45°35' W 122°32'2 4.1
2018-Jun-20 10:00N 45°36' W 122°35'2 4.1
2018-Jun-20 09:31N 45°36' W 122°38'2 4.2
2018-Jun-20 09:00N 45°37' W 122°40'2 3.6
2018-Jun-20 08:30N 45°38' W 122°42'2 4.9
2018-Jun-20 08:00N 45°39' W 122°45'3 5.0
2018-Jun-20 07:30N 45°42' W 122°46'3 5.2
2018-Jun-20 06:59N 45°44' W 122°46'7 5.0
2018-Jun-20 05:35N 45°51' W 122°48'1 6.3
2018-Jun-20 05:30N 45°51' W 122°48'3 5.5
2018-Jun-20 05:00N 45°48' W 122°49'1 2.2
2018-Jun-20 04:30N 45°48' W 122°51'0 0.0
2018-Jun-20 03:57N 45°48' W 122°51'0 0.0
2018-Jun-20 03:00N 45°48' W 122°51'0 0.0
2018-Jun-20 02:30N 45°48' W 122°51'0 0.0
2018-Jun-20 01:57N 45°48' W 122°51'0 0.0
2018-Jun-20 01:30N 45°48' W 122°51'0 0.0
2018-Jun-20 00:54N 45°48' W 122°51'0 0.1
2018-Jun-20 00:30N 45°48' W 122°51'2 4.6
2018-Jun-20 00:01N 45°50' W 122°49'1 2.9
2018-Jun-19 23:30N 45°50' W 122°47'5 9.2
2018-Jun-19 23:00N 45°46' W 122°46'5 9.4
2018-Jun-19 22:31N 45°41' W 122°46'4 8.5
2018-Jun-19 22:00N 45°38' W 122°42'5 9.3
2018-Jun-19 21:30N 45°36' W 122°36'4 7.7
2018-Jun-19 21:00N 45°35' W 122°31'3 6.1
2018-Jun-19 20:29N 45°34' W 122°27'0 0.0
2018-Jun-19 19:59N 45°34' W 122°27'0 0.0
2018-Jun-19 19:23N 45°34' W 122°27'0 0.0
2018-Jun-19 18:59N 45°34' W 122°27'0 0.0
2018-Jun-19 18:29N 45°34' W 122°27'0 0.0
2018-Jun-19 17:59N 45°34' W 122°27'0 0.0
2018-Jun-19 17:29N 45°34' W 122°27'0 0.0
2018-Jun-19 16:59N 45°34' W 122°27'0 0.0
2018-Jun-19 16:29N 45°34' W 122°27'0 0.1
2018-Jun-19 16:00N 45°34' W 122°27'2 3.4
2018-Jun-19 15:28N 45°35' W 122°29'2 4.5
2018-Jun-19 15:00N 45°35' W 122°32'2 4.3
2018-Jun-19 14:30N 45°36' W 122°35'2 4.2
2018-Jun-19 14:00N 45°36' W 122°38'2 4.1
2018-Jun-19 13:30N 45°37' W 122°40'2 4.6
2018-Jun-19 13:00N 45°38' W 122°43'2 4.7
2018-Jun-19 12:30N 45°40' W 122°46'2 4.8
2018-Jun-19 12:01N 45°42' W 122°46'3 4.8
2018-Jun-19 11:28N 45°45' W 122°46'2 4.7
2018-Jun-19 11:00N 45°47' W 122°47'2 4.7
2018-Jun-19 10:29N 45°49' W 122°48'2 4.6
2018-Jun-19 10:00N 45°52' W 122°47'3 6.3
2018-Jun-19 09:30N 45°49' W 122°50'1 2.8
2018-Jun-19 08:59N 45°48' W 122°51'0 0.1
2018-Jun-19 08:30N 45°48' W 122°51'0 0.1
2018-Jun-19 07:56N 45°48' W 122°51'0 0.0
2018-Jun-19 07:29N 45°48' W 122°51'0 0.0
2018-Jun-19 06:56N 45°48' W 122°51'0 0.0
2018-Jun-19 06:29N 45°48' W 122°51'0 0.0
2018-Jun-19 05:53N 45°48' W 122°51'0 0.0
2018-Jun-19 05:29N 45°48' W 122°51'0 0.0
2018-Jun-19 04:59N 45°48' W 122°51'0 0.1
2018-Jun-19 04:31N 45°48' W 122°51'3 5.3
2018-Jun-19 04:01N 45°50' W 122°49'1 1.8
2018-Jun-19 03:30N 45°50' W 122°47'4 8.1
2018-Jun-19 03:00N 45°46' W 122°46'3 6.5
2018-Jun-19 02:30N 45°43' W 122°46'4 8.1
2018-Jun-19 02:00N 45°39' W 122°47'2 3.6
2018-Jun-19 01:28N 45°37' W 122°47'0 0.0
2018-Jun-19 00:58N 45°37' W 122°47'0 0.0
2018-Jun-19 00:28N 45°37' W 122°47'0 0.0
2018-Jun-18 23:52N 45°37' W 122°47'0 0.0
2018-Jun-18 23:25N 45°37' W 122°47'0 0.0
2018-Jun-18 22:58N 45°37' W 122°47'0 0.0
2018-Jun-18 22:28N 45°37' W 122°47'0 0.0
2018-Jun-18 21:37N 45°37' W 122°47'0 0.0
2018-Jun-18 21:25N 45°37' W 122°47'0 0.1
2018-Jun-18 20:56N 45°37' W 122°47'2 4.9
2018-Jun-18 20:30N 45°39' W 122°46'2 4.7
2018-Jun-18 20:00N 45°41' W 122°46'2 4.7
2018-Jun-18 19:31N 45°43' W 122°46'2 4.6
2018-Jun-18 19:00N 45°46' W 122°46'2 4.7
2018-Jun-18 18:30N 45°48' W 122°47'2 4.4
2018-Jun-18 18:00N 45°50' W 122°47'3 4.3
2018-Jun-18 17:21N 45°53' W 122°48'2 4.6
2018-Jun-18 17:00N 45°54' W 122°49'0 0.6
2018-Jun-18 16:30N 45°55' W 122°49'0 0.0
2018-Jun-18 16:00N 45°55' W 122°49'0 0.0
2018-Jun-18 15:30N 45°55' W 122°49'0 0.0
2018-Jun-18 15:00N 45°55' W 122°49'0 0.0
2018-Jun-18 14:30N 45°55' W 122°49'0 0.0
2018-Jun-18 14:00N 45°55' W 122°49'0 0.0
2018-Jun-18 13:21N 45°55' W 122°49'0 0.6
2018-Jun-18 13:01N 45°55' W 122°49'4 7.6
2018-Jun-18 12:30N 45°51' W 122°48'3 6.4
2018-Jun-18 12:00N 45°48' W 122°50'0 0.0
2018-Jun-17 04:53N 45°48' W 122°51'1 3.6
2018-Jun-17 04:30N 45°49' W 122°50'3 5.9
2018-Jun-17 04:00N 45°51' W 122°47'5 9.2
2018-Jun-17 03:30N 45°47' W 122°46'5 9.4
2018-Jun-17 03:00N 45°42' W 122°46'4 7.0
2018-Jun-17 02:28N 45°39' W 122°44'0 0.0
2018-Jun-17 01:43N 45°39' W 122°44'0 0.0
2018-Jun-17 01:22N 45°39' W 122°44'0 0.0
2018-Jun-17 00:58N 45°39' W 122°44'0 0.0
2018-Jun-17 00:25N 45°39' W 122°44'0 0.0
2018-Jun-16 23:58N 45°39' W 122°44'0 0.0
2018-Jun-16 23:28N 45°39' W 122°44'0 0.0
2018-Jun-16 22:58N 45°39' W 122°44'0 0.0
2018-Jun-16 22:28N 45°39' W 122°44'2 3.3
2018-Jun-16 22:00N 45°39' W 122°45'3 5.7
2018-Jun-16 21:30N 45°42' W 122°46'3 5.7
2018-Jun-16 21:00N 45°45' W 122°46'3 5.6
2018-Jun-16 20:29N 45°48' W 122°47'3 5.4
2018-Jun-16 20:01N 45°50' W 122°47'1 2.2
2018-Jun-16 19:28N 45°50' W 122°49'2 3.3
2018-Jun-16 19:01N 45°48' W 122°49'1 1.9
2018-Jun-16 18:31N 45°48' W 122°50'0 0.5
2018-Jun-16 17:58N 45°48' W 122°51'0 0.0
2018-Jun-16 17:22N 45°48' W 122°51'0 0.0
2018-Jun-16 16:58N 45°48' W 122°51'0 0.0
2018-Jun-16 16:25N 45°48' W 122°51'0 0.0
2018-Jun-16 15:46N 45°48' W 122°51'0 0.0
2018-Jun-16 15:28N 45°48' W 122°51'0 0.0
2018-Jun-16 14:58N 45°48' W 122°51'0 0.0
2018-Jun-16 14:29N 45°48' W 122°51'0 0.1
2018-Jun-16 14:00N 45°48' W 122°51'3 5.7
2018-Jun-16 13:30N 45°50' W 122°48'1 2.5
2018-Jun-16 13:00N 45°49' W 122°48'4 8.8
2018-Jun-16 12:30N 45°45' W 122°46'5 9.4
2018-Jun-16 12:00N 45°40' W 122°46'4 7.7
2018-Jun-16 11:30N 45°36' W 122°47'3 6.4
2018-Jun-16 11:00N 45°34' W 122°44'0 0.1
2018-Jun-16 10:29N 45°34' W 122°44'0 0.0
2018-Jun-16 09:56N 45°34' W 122°44'0 0.0
2018-Jun-16 09:29N 45°34' W 122°44'0 0.0
2018-Jun-16 08:53N 45°34' W 122°44'0 0.0
2018-Jun-16 08:29N 45°34' W 122°44'0 0.0
2018-Jun-16 07:56N 45°34' W 122°44'0 0.0
2018-Jun-16 07:29N 45°34' W 122°44'0 0.0
2018-Jun-16 06:59N 45°34' W 122°44'0 0.4
2018-Jun-16 06:31N 45°34' W 122°44'3 6.7
2018-Jun-16 06:00N 45°37' W 122°47'3 6.5
2018-Jun-16 05:30N 45°40' W 122°46'3 5.4
2018-Jun-16 05:00N 45°42' W 122°46'3 5.6
2018-Jun-16 04:28N 45°46' W 122°46'3 5.7
2018-Jun-16 03:54N 45°49' W 122°47'2 5.8
2018-Jun-16 03:30N 45°51' W 122°47'2 3.5
2018-Jun-16 03:00N 45°50' W 122°49'2 4.2
2018-Jun-16 02:30N 45°48' W 122°50'0 0.4
2018-Jun-16 01:51N 45°48' W 122°51'0 0.0
2018-Jun-16 01:30N 45°48' W 122°51'0 0.0
2018-Jun-16 01:00N 45°48' W 122°51'0 0.0
2018-Jun-16 00:30N 45°48' W 122°51'0 0.0
2018-Jun-15 23:42N 45°48' W 122°51'0 0.0
2018-Jun-15 23:30N 45°48' W 122°51'0 0.0
2018-Jun-15 23:00N 45°48' W 122°51'0 0.2
2018-Jun-15 22:28N 45°48' W 122°51'2 3.8
2018-Jun-15 22:00N 45°49' W 122°50'2 5.0
2018-Jun-15 21:30N 45°51' W 122°47'510.0
2018-Jun-15 21:00N 45°46' W 122°46'510.3
2018-Jun-15 20:30N 45°41' W 122°46'4 8.4
2018-Jun-15 20:00N 45°37' W 122°47'4 7.9
2018-Jun-15 19:30N 45°34' W 122°44'0 0.1
2018-Jun-15 18:58N 45°34' W 122°44'0 0.0
2018-Jun-15 18:28N 45°34' W 122°44'0 0.0
2018-Jun-15 17:58N 45°34' W 122°44'0 0.0
2018-Jun-15 17:28N 45°34' W 122°44'0 0.0
2018-Jun-15 16:58N 45°34' W 122°44'0 0.0
2018-Jun-15 16:25N 45°34' W 122°44'0 0.0
2018-Jun-15 15:49N 45°34' W 122°44'0 0.0
2018-Jun-15 15:28N 45°34' W 122°44'0 0.0
2018-Jun-15 14:55N 45°34' W 122°44'0 0.0
2018-Jun-15 14:28N 45°34' W 122°44'0 0.0
2018-Jun-15 13:58N 45°34' W 122°44'0 0.1
2018-Jun-15 13:28N 45°34' W 122°44'3 5.9
2018-Jun-15 13:00N 45°35' W 122°46'3 6.8
2018-Jun-15 12:30N 45°39' W 122°46'3 6.4
2018-Jun-15 12:00N 45°42' W 122°46'3 6.3
2018-Jun-15 11:30N 45°45' W 122°46'3 6.2
2018-Jun-15 11:00N 45°48' W 122°47'3 5.8
2018-Jun-15 10:30N 45°51' W 122°47'4 4.0
2018-Jun-15 09:37N 45°48' W 122°50'0 2.8
2018-Jun-15 09:31N 45°48' W 122°50'1 1.0
2018-Jun-15 08:59N 45°48' W 122°51'0 0.1
2018-Jun-15 08:23N 45°48' W 122°51'0 0.0
2018-Jun-15 07:56N 45°48' W 122°51'0 0.0
2018-Jun-15 06:53N 45°48' W 122°51'0 0.0
2018-Jun-15 06:29N 45°48' W 122°51'0 0.0
2018-Jun-15 05:53N 45°48' W 122°51'0 0.0
2018-Jun-15 05:29N 45°48' W 122°51'0 0.0
2018-Jun-15 04:56N 45°48' W 122°51'0 0.1
2018-Jun-15 04:30N 45°48' W 122°51'3 5.2
2018-Jun-15 04:00N 45°50' W 122°49'5 4.9
2018-Jun-15 03:04N 45°46' W 122°46'1 9.9
2018-Jun-15 03:00N 45°45' W 122°46'5 9.6
2018-Jun-15 02:30N 45°40' W 122°46'2 4.8
2018-Jun-15 02:00N 45°39' W 122°44'3 4.9
2018-Jun-15 01:21N 45°37' W 122°47'3 7.8
2018-Jun-15 01:00N 45°35' W 122°45'3 6.1
2018-Jun-15 00:30N 45°33' W 122°41'0 0.0
2018-Jun-14 20:18N 45°33' W 122°41'1 4.7
2018-Jun-14 20:00N 45°34' W 122°43'4 7.8
2018-Jun-14 19:31N 45°36' W 122°47'3 6.1
2018-Jun-14 19:01N 45°39' W 122°45'1 1.1
2018-Jun-14 18:30N 45°39' W 122°44'2 4.8
2018-Jun-14 18:00N 45°41' W 122°46'3 5.7
2018-Jun-14 17:30N 45°44' W 122°46'3 5.4
2018-Jun-14 17:01N 45°46' W 122°46'3 5.2
2018-Jun-14 16:30N 45°49' W 122°47'3 5.1
2018-Jun-14 16:01N 45°51' W 122°47'2 4.5
2018-Jun-14 15:30N 45°49' W 122°49'1 2.7
2018-Jun-14 15:00N 45°48' W 122°50'1 1.2
2018-Jun-14 14:21N 45°48' W 122°51'0 0.0
2018-Jun-14 14:00N 45°48' W 122°51'0 0.0
2018-Jun-14 13:30N 45°48' W 122°51'0 0.0
2018-Jun-14 12:54N 45°48' W 122°51'0 0.0
2018-Jun-14 12:30N 45°48' W 122°51'0 0.0
2018-Jun-14 12:00N 45°48' W 122°51'0 0.0
2018-Jun-14 11:30N 45°48' W 122°51'0 0.0
2018-Jun-14 11:00N 45°48' W 122°51'0 0.0
2018-Jun-14 10:30N 45°48' W 122°51'0 0.0
2018-Jun-14 09:54N 45°48' W 122°51'0 0.0
2018-Jun-14 09:27N 45°48' W 122°51'0 0.0
2018-Jun-14 09:00N 45°48' W 122°51'0 0.0
2018-Jun-14 08:30N 45°48' W 122°51'0 0.0
2018-Jun-14 07:57N 45°48' W 122°51'0 0.0
2018-Jun-14 07:30N 45°48' W 122°51'0 0.0
2018-Jun-14 06:57N 45°48' W 122°51'0 0.0
2018-Jun-14 06:24N 45°48' W 122°51'0 0.0
2018-Jun-14 05:54N 45°48' W 122°51'0 0.0
2018-Jun-14 05:18N 45°48' W 122°51'0 0.0
2018-Jun-14 04:57N 45°48' W 122°51'0 0.0
2018-Jun-14 04:30N 45°48' W 122°51'0 0.0
2018-Jun-14 03:48N 45°48' W 122°51'2 4.5
2018-Jun-14 03:18N 45°50' W 122°49'0 0.5
2018-Jun-14 03:01N 45°50' W 122°49'1 2.0
2018-Jun-14 02:31N 45°50' W 122°47'510.0
2018-Jun-14 02:00N 45°45' W 122°46'5 9.9
2018-Jun-14 01:30N 45°40' W 122°46'2 4.4
2018-Jun-14 01:00N 45°39' W 122°44'0 0.0
2018-Jun-14 00:30N 45°39' W 122°44'0 0.0
2018-Jun-14 00:00N 45°39' W 122°44'0 0.0
2018-Jun-13 23:24N 45°39' W 122°44'0 0.0
2018-Jun-13 23:00N 45°39' W 122°44'0 0.0
2018-Jun-13 22:27N 45°39' W 122°44'0 0.0
2018-Jun-13 22:00N 45°39' W 122°44'0 0.0
2018-Jun-13 21:30N 45°39' W 122°44'0 0.0
2018-Jun-13 21:00N 45°39' W 122°44'0 0.0
2018-Jun-13 20:30N 45°39' W 122°44'1 2.9
2018-Jun-13 20:00N 45°39' W 122°45'3 5.5
2018-Jun-13 19:30N 45°42' W 122°46'3 5.4
2018-Jun-13 19:00N 45°45' W 122°46'3 5.2
2018-Jun-13 18:29N 45°47' W 122°47'2 5.1
2018-Jun-13 18:00N 45°50' W 122°48'2 3.0
2018-Jun-13 17:30N 45°51' W 122°48'3 4.7
2018-Jun-13 16:51N 45°48' W 122°49'1 2.9
2018-Jun-13 16:31N 45°48' W 122°50'0 0.4
2018-Jun-13 16:00N 45°48' W 122°51'0 0.1
2018-Jun-13 15:30N 45°48' W 122°51'0 0.0
2018-Jun-13 15:00N 45°48' W 122°51'0 0.0
2018-Jun-13 14:24N 45°48' W 122°51'0 0.0
2018-Jun-13 14:00N 45°48' W 122°51'0 0.0
2018-Jun-13 13:27N 45°48' W 122°51'0 0.0
2018-Jun-13 12:54N 45°48' W 122°51'0 0.0
2018-Jun-13 12:30N 45°48' W 122°51'0 0.0
2018-Jun-13 11:54N 45°48' W 122°51'0 0.1
2018-Jun-13 11:24N 45°48' W 122°51'1 2.8
2018-Jun-13 10:57N 45°48' W 122°49'1 1.8
2018-Jun-13 10:30N 45°49' W 122°50'2 5.0
2018-Jun-13 10:00N 45°51' W 122°47'4 9.0
2018-Jun-13 09:30N 45°47' W 122°46'5 9.6
2018-Jun-13 09:00N 45°42' W 122°46'4 8.7
2018-Jun-13 08:30N 45°38' W 122°43'5 9.8
2018-Jun-13 08:00N 45°36' W 122°36'610.5
2018-Jun-13 07:29N 45°35' W 122°29'2 3.1
2018-Jun-13 06:54N 45°34' W 122°27'0 0.0
2018-Jun-13 06:12N 45°34' W 122°27'0 0.0
2018-Jun-13 05:54N 45°34' W 122°27'0 0.0
2018-Jun-13 05:30N 45°34' W 122°27'0 0.0
2018-Jun-13 04:54N 45°34' W 122°27'0 0.0
2018-Jun-13 04:30N 45°34' W 122°27'0 0.0
2018-Jun-13 03:51N 45°34' W 122°27'0 0.0
2018-Jun-13 03:27N 45°34' W 122°27'0 0.0
2018-Jun-13 03:00N 45°34' W 122°27'0 0.0
2018-Jun-13 02:21N 45°34' W 122°27'0 0.0
2018-Jun-13 02:00N 45°34' W 122°27'0 0.2
2018-Jun-13 01:15N 45°34' W 122°27'1 2.7
2018-Jun-13 00:59N 45°34' W 122°28'2 4.7
2018-Jun-13 00:29N 45°35' W 122°31'2 4.8
2018-Jun-13 00:00N 45°36' W 122°34'2 4.5
2018-Jun-12 23:30N 45°36' W 122°37'2 4.6
2018-Jun-12 23:00N 45°37' W 122°40'2 4.8
2018-Jun-12 22:30N 45°38' W 122°43'2 4.9
2018-Jun-12 22:00N 45°40' W 122°46'3 5.1
2018-Jun-12 21:26N 45°43' W 122°46'2 5.2
2018-Jun-12 21:00N 45°45' W 122°46'3 5.0
2018-Jun-12 20:30N 45°47' W 122°47'2 4.9
2018-Jun-12 20:00N 45°50' W 122°48'2 3.6
2018-Jun-12 19:30N 45°51' W 122°48'3 6.8
2018-Jun-12 19:00N 45°48' W 122°50'1 2.1
2018-Jun-12 18:30N 45°48' W 122°51'0 0.6
2018-Jun-12 18:00N 45°48' W 122°50'0 0.4
2018-Jun-12 17:20N 45°48' W 122°51'0 0.0
2018-Jun-12 16:59N 45°48' W 122°51'  
Track history (hours):
 
Tides and Currents Weather Stations Pressure Air Temp Water Temp Dewpoint Dewpoint Depression Visibility Wind Speed Wind Dir Waves Ship Positions

Amy B

Owner: WCP, Inc, Wilsonville, OR. More information available from US FCC via Universal Licensing System and Coast Guard Vessel Documentation Center.

Last reported at 2018-Jun-22 16:58 UTC. Time now 2018-Jun-22 17:07 UTC.
Position N 45°34' W 122°44'.

Length 21 m; draft 2.5 m.

Type: Towing. MMSI: 367727410.

Date/timePositionNaut miles runAvg speedWind from/ knotsBaromVisibWave heightAir tempDewpointWater temp
2018-Jun-22 16:58N 45°34' W 122°44'0 0.0
2018-Jun-22 16:22N 45°34' W 122°44'0 0.0
2018-Jun-22 15:58N 45°34' W 122°44'0 0.0
2018-Jun-22 15:28N 45°34' W 122°44'0 0.0
2018-Jun-22 14:52N 45°34' W 122°44'0 0.0
2018-Jun-22 14:25N 45°34' W 122°44'1 3.3
2018-Jun-22 14:00N 45°35' W 122°45'3 5.9
2018-Jun-22 13:30N 45°37' W 122°48'2 4.9
2018-Jun-22 13:00N 45°39' W 122°50'3 4.7
2018-Jun-22 12:27N 45°41' W 122°52'2 4.9
2018-Jun-22 12:00N 45°43' W 122°52'2 4.3
2018-Jun-22 11:30N 45°45' W 122°50'2 3.9
2018-Jun-22 11:00N 45°47' W 122°49'2 3.5
2018-Jun-22 10:30N 45°48' W 122°49'1 2.4
2018-Jun-22 10:00N 45°48' W 122°51'0 0.1
2018-Jun-22 09:30N 45°48' W 122°51'0 0.0
2018-Jun-22 08:57N 45°48' W 122°51'0 0.0
2018-Jun-22 08:18N 45°48' W 122°51'0 0.0
2018-Jun-22 07:57N 45°48' W 122°51'0 0.0
2018-Jun-22 07:30N 45°48' W 122°51'0 0.0
2018-Jun-22 06:54N 45°48' W 122°51'0 0.0
2018-Jun-22 06:27N 45°48' W 122°51'0 0.0
2018-Jun-22 05:33N 45°48' W 122°51'0 0.0
2018-Jun-22 05:30N 45°48' W 122°51'0 0.0
2018-Jun-22 05:00N 45°48' W 122°51'0 0.0
2018-Jun-22 04:30N 45°48' W 122°51'0 0.0
2018-Jun-22 04:00N 45°48' W 122°51'1 2.1
2018-Jun-22 03:31N 45°48' W 122°50'3 5.9
2018-Jun-22 03:01N 45°51' W 122°48'3 5.5
2018-Jun-22 02:29N 45°48' W 122°47'4 8.9
2018-Jun-22 02:00N 45°44' W 122°46'4 8.8
2018-Jun-22 01:30N 45°40' W 122°46'2 3.5
2018-Jun-22 01:00N 45°39' W 122°44'0 0.0
2018-Jun-22 00:30N 45°39' W 122°44'0 0.0
2018-Jun-21 23:54N 45°39' W 122°44'0 0.0
2018-Jun-21 23:00N 45°39' W 122°44'0 0.0
2018-Jun-21 22:21N 45°39' W 122°44'0 0.0
2018-Jun-21 21:57N 45°39' W 122°44'0 0.0
2018-Jun-21 21:27N 45°39' W 122°44'0 0.0
2018-Jun-21 21:00N 45°39' W 122°44'2 3.5
2018-Jun-21 20:30N 45°40' W 122°46'3 5.2
2018-Jun-21 20:00N 45°42' W 122°46'2 3.4
2018-Jun-21 19:30N 45°44' W 122°46'2 5.0
2018-Jun-21 19:00N 45°46' W 122°46'3 5.1
2018-Jun-21 18:30N 45°49' W 122°48'3 5.1
2018-Jun-21 18:00N 45°51' W 122°47'2 4.1
2018-Jun-21 17:30N 45°50' W 122°49'2 4.0
2018-Jun-21 17:00N 45°48' W 122°50'0 0.4
2018-Jun-21 16:29N 45°48' W 122°51'0 0.0
2018-Jun-21 14:04N 45°48' W 122°51'0 0.0
2018-Jun-21 13:58N 45°48' W 122°51'0 0.0
2018-Jun-21 13:28N 45°48' W 122°51'0 0.1
2018-Jun-21 13:00N 45°48' W 122°51'2 4.5
2018-Jun-21 12:31N 45°49' W 122°49'2 2.5
2018-Jun-21 11:43N 45°48' W 122°47'2 9.2
2018-Jun-21 11:30N 45°46' W 122°46'5 9.2
2018-Jun-21 11:00N 45°42' W 122°46'4 6.0
2018-Jun-21 10:25N 45°39' W 122°44'0 0.0
2018-Jun-21 09:55N 45°39' W 122°44'0 0.0
2018-Jun-21 09:28N 45°39' W 122°44'0 0.0
2018-Jun-21 08:49N 45°39' W 122°44'0 0.0
2018-Jun-21 08:28N 45°39' W 122°44'0 0.0
2018-Jun-21 07:58N 45°39' W 122°44'0 0.0
2018-Jun-21 07:22N 45°39' W 122°44'0 0.0
2018-Jun-21 06:58N 45°39' W 122°44'0 0.0
2018-Jun-21 06:28N 45°39' W 122°44'0 0.0
2018-Jun-21 05:46N 45°39' W 122°44'0 1.1
2018-Jun-21 05:31N 45°39' W 122°44'3 5.1
2018-Jun-21 05:01N 45°41' W 122°46'2 4.2
2018-Jun-21 04:30N 45°43' W 122°46'2 4.7
2018-Jun-21 04:01N 45°45' W 122°46'3 5.0
2018-Jun-21 03:25N 45°48' W 122°47'2 5.4
2018-Jun-21 02:58N 45°50' W 122°47'2 4.6
2018-Jun-21 02:28N 45°53' W 122°48'4 5.4
2018-Jun-21 01:49N 45°49' W 122°49'2 4.4
2018-Jun-21 01:27N 45°48' W 122°50'0 0.3
2018-Jun-21 00:59N 45°48' W 122°50'0 0.1
2018-Jun-20 23:18N 45°48' W 122°51'0 0.0
2018-Jun-20 22:48N 45°48' W 122°51'0 0.0
2018-Jun-20 22:21N 45°48' W 122°51'0 0.0
2018-Jun-20 21:42N 45°48' W 122°51'0 0.0
2018-Jun-20 21:27N 45°48' W 122°51'0 0.0
2018-Jun-20 21:00N 45°48' W 122°51'2 3.1
2018-Jun-20 20:27N 45°49' W 122°50'3 5.8
2018-Jun-20 19:58N 45°52' W 122°48'5 8.3
2018-Jun-20 19:22N 45°47' W 122°46'410.2
2018-Jun-20 19:00N 45°43' W 122°46'4 7.6
2018-Jun-20 18:30N 45°39' W 122°45'4 9.0
2018-Jun-20 18:00N 45°37' W 122°40'5 9.4
2018-Jun-20 17:29N 45°36' W 122°33'4 7.2
2018-Jun-20 16:57N 45°35' W 122°28'1 1.7
2018-Jun-20 16:15N 45°34' W 122°27'0 0.0
2018-Jun-20 15:57N 45°34' W 122°27'0 0.0
2018-Jun-20 15:27N 45°34' W 122°27'0 0.0
2018-Jun-20 14:59N 45°34' W 122°27'0 0.0
2018-Jun-20 14:27N 45°34' W 122°27'0 0.0
2018-Jun-20 13:58N 45°34' W 122°27'0 0.0
2018-Jun-20 13:27N 45°34' W 122°27'0 0.0
2018-Jun-20 12:57N 45°34' W 122°27'0 0.0
2018-Jun-20 11:48N 45°34' W 122°27'1 2.7
2018-Jun-20 11:27N 45°34' W 122°28'1 2.5
2018-Jun-20 11:00N 45°35' W 122°29'2 4.0
2018-Jun-20 10:30N 45°35' W 122°32'2 4.1
2018-Jun-20 10:00N 45°36' W 122°35'2 4.1
2018-Jun-20 09:31N 45°36' W 122°38'2 4.2
2018-Jun-20 09:00N 45°37' W 122°40'2 3.6
2018-Jun-20 08:30N 45°38' W 122°42'2 4.9
2018-Jun-20 08:00N 45°39' W 122°45'3 5.0
2018-Jun-20 07:30N 45°42' W 122°46'3 5.2
2018-Jun-20 06:59N 45°44' W 122°46'7 5.0
2018-Jun-20 05:35N 45°51' W 122°48'1 6.3
2018-Jun-20 05:30N 45°51' W 122°48'3 5.5
2018-Jun-20 05:00N 45°48' W 122°49'1 2.2
2018-Jun-20 04:30N 45°48' W 122°51'0 0.0
2018-Jun-20 03:57N 45°48' W 122°51'0 0.0
2018-Jun-20 03:00N 45°48' W 122°51'0 0.0
2018-Jun-20 02:30N 45°48' W 122°51'0 0.0
2018-Jun-20 01:57N 45°48' W 122°51'0 0.0
2018-Jun-20 01:30N 45°48' W 122°51'0 0.0
2018-Jun-20 00:54N 45°48' W 122°51'0 0.1
2018-Jun-20 00:30N 45°48' W 122°51'2 4.6
2018-Jun-20 00:01N 45°50' W 122°49'1 2.9
2018-Jun-19 23:30N 45°50' W 122°47'5 9.2
2018-Jun-19 23:00N 45°46' W 122°46'5 9.4
2018-Jun-19 22:31N 45°41' W 122°46'4 8.5
2018-Jun-19 22:00N 45°38' W 122°42'5 9.3
2018-Jun-19 21:30N 45°36' W 122°36'4 7.7
2018-Jun-19 21:00N 45°35' W 122°31'3 6.1
2018-Jun-19 20:29N 45°34' W 122°27'0 0.0
2018-Jun-19 19:59N 45°34' W 122°27'0 0.0
2018-Jun-19 19:23N 45°34' W 122°27'0 0.0
2018-Jun-19 18:59N 45°34' W 122°27'0 0.0
2018-Jun-19 18:29N 45°34' W 122°27'0 0.0
2018-Jun-19 17:59N 45°34' W 122°27'0 0.0
2018-Jun-19 17:29N 45°34' W 122°27'0 0.0
2018-Jun-19 16:59N 45°34' W 122°27'0 0.0
2018-Jun-19 16:29N 45°34' W 122°27'0 0.1
2018-Jun-19 16:00N 45°34' W 122°27'2 3.4
2018-Jun-19 15:28N 45°35' W 122°29'2 4.5
2018-Jun-19 15:00N 45°35' W 122°32'2 4.3
2018-Jun-19 14:30N 45°36' W 122°35'2 4.2
2018-Jun-19 14:00N 45°36' W 122°38'2 4.1
2018-Jun-19 13:30N 45°37' W 122°40'2 4.6
2018-Jun-19 13:00N 45°38' W 122°43'2 4.7
2018-Jun-19 12:30N 45°40' W 122°46'2 4.8
2018-Jun-19 12:01N 45°42' W 122°46'3 4.8
2018-Jun-19 11:28N 45°45' W 122°46'2 4.7
2018-Jun-19 11:00N 45°47' W 122°47'2 4.7
2018-Jun-19 10:29N 45°49' W 122°48'2 4.6
2018-Jun-19 10:00N 45°52' W 122°47'3 6.3
2018-Jun-19 09:30N 45°49' W 122°50'1 2.8
2018-Jun-19 08:59N 45°48' W 122°51'0 0.1
2018-Jun-19 08:30N 45°48' W 122°51'0 0.1
2018-Jun-19 07:56N 45°48' W 122°51'0 0.0
2018-Jun-19 07:29N 45°48' W 122°51'0 0.0
2018-Jun-19 06:56N 45°48' W 122°51'0 0.0
2018-Jun-19 06:29N 45°48' W 122°51'0 0.0
2018-Jun-19 05:53N 45°48' W 122°51'0 0.0
2018-Jun-19 05:29N 45°48' W 122°51'0 0.0
2018-Jun-19 04:59N 45°48' W 122°51'0 0.1
2018-Jun-19 04:31N 45°48' W 122°51'3 5.3
2018-Jun-19 04:01N 45°50' W 122°49'1 1.8
2018-Jun-19 03:30N 45°50' W 122°47'4 8.1
2018-Jun-19 03:00N 45°46' W 122°46'3 6.5
2018-Jun-19 02:30N 45°43' W 122°46'4 8.1
2018-Jun-19 02:00N 45°39' W 122°47'2 3.6
2018-Jun-19 01:28N 45°37' W 122°47'0 0.0
2018-Jun-19 00:58N 45°37' W 122°47'0 0.0
2018-Jun-19 00:28N 45°37' W 122°47'0 0.0
2018-Jun-18 23:52N 45°37' W 122°47'0 0.0
2018-Jun-18 23:25N 45°37' W 122°47'0 0.0
2018-Jun-18 22:58N 45°37' W 122°47'0 0.0
2018-Jun-18 22:28N 45°37' W 122°47'0 0.0
2018-Jun-18 21:37N 45°37' W 122°47'0 0.0
2018-Jun-18 21:25N 45°37' W 122°47'0 0.1
2018-Jun-18 20:56N 45°37' W 122°47'2 4.9
2018-Jun-18 20:30N 45°39' W 122°46'2 4.7
2018-Jun-18 20:00N 45°41' W 122°46'2 4.7
2018-Jun-18 19:31N 45°43' W 122°46'2 4.6
2018-Jun-18 19:00N 45°46' W 122°46'2 4.7
2018-Jun-18 18:30N 45°48' W 122°47'2 4.4
2018-Jun-18 18:00N 45°50' W 122°47'3 4.3
2018-Jun-18 17:21N 45°53' W 122°48'2 4.6
2018-Jun-18 17:00N 45°54' W 122°49'0 0.6
2018-Jun-18 16:30N 45°55' W 122°49'0 0.0
2018-Jun-18 16:00N 45°55' W 122°49'0 0.0
2018-Jun-18 15:30N 45°55' W 122°49'0 0.0
2018-Jun-18 15:00N 45°55' W 122°49'0 0.0
2018-Jun-18 14:30N 45°55' W 122°49'0 0.0
2018-Jun-18 14:00N 45°55' W 122°49'0 0.0
2018-Jun-18 13:21N 45°55' W 122°49'0 0.6
2018-Jun-18 13:01N 45°55' W 122°49'4 7.6
2018-Jun-18 12:30N 45°51' W 122°48'3 6.4
2018-Jun-18 12:00N 45°48' W 122°50'0 0.0
2018-Jun-17 04:53N 45°48' W 122°51'1 3.6
2018-Jun-17 04:30N 45°49' W 122°50'3 5.9
2018-Jun-17 04:00N 45°51' W 122°47'5 9.2
2018-Jun-17 03:30N 45°47' W 122°46'5 9.4
2018-Jun-17 03:00N 45°42' W 122°46'4 7.0
2018-Jun-17 02:28N 45°39' W 122°44'0 0.0
2018-Jun-17 01:43N 45°39' W 122°44'0 0.0
2018-Jun-17 01:22N 45°39' W 122°44'0 0.0
2018-Jun-17 00:58N 45°39' W 122°44'0 0.0
2018-Jun-17 00:25N 45°39' W 122°44'0 0.0
2018-Jun-16 23:58N 45°39' W 122°44'0 0.0
2018-Jun-16 23:28N 45°39' W 122°44'0 0.0
2018-Jun-16 22:58N 45°39' W 122°44'0 0.0
2018-Jun-16 22:28N 45°39' W 122°44'2 3.3
2018-Jun-16 22:00N 45°39' W 122°45'3 5.7
2018-Jun-16 21:30N 45°42' W 122°46'3 5.7
2018-Jun-16 21:00N 45°45' W 122°46'3 5.6
2018-Jun-16 20:29N 45°48' W 122°47'3 5.4
2018-Jun-16 20:01N 45°50' W 122°47'1 2.2
2018-Jun-16 19:28N 45°50' W 122°49'2 3.3
2018-Jun-16 19:01N 45°48' W 122°49'1 1.9
2018-Jun-16 18:31N 45°48' W 122°50'0 0.5
2018-Jun-16 17:58N 45°48' W 122°51'0 0.0
2018-Jun-16 17:22N 45°48' W 122°51'0 0.0
2018-Jun-16 16:58N 45°48' W 122°51'0 0.0
2018-Jun-16 16:25N 45°48' W 122°51'0 0.0
2018-Jun-16 15:46N 45°48' W 122°51'0 0.0
2018-Jun-16 15:28N 45°48' W 122°51'0 0.0
2018-Jun-16 14:58N 45°48' W 122°51'0 0.0
2018-Jun-16 14:29N 45°48' W 122°51'0 0.1
2018-Jun-16 14:00N 45°48' W 122°51'3 5.7
2018-Jun-16 13:30N 45°50' W 122°48'1 2.5
2018-Jun-16 13:00N 45°49' W 122°48'4 8.8
2018-Jun-16 12:30N 45°45' W 122°46'5 9.4
2018-Jun-16 12:00N 45°40' W 122°46'4 7.7
2018-Jun-16 11:30N 45°36' W 122°47'3 6.4
2018-Jun-16 11:00N 45°34' W 122°44'0 0.1
2018-Jun-16 10:29N 45°34' W 122°44'0 0.0
2018-Jun-16 09:56N 45°34' W 122°44'0 0.0
2018-Jun-16 09:29N 45°34' W 122°44'0 0.0
2018-Jun-16 08:53N 45°34' W 122°44'0 0.0
2018-Jun-16 08:29N 45°34' W 122°44'0 0.0
2018-Jun-16 07:56N 45°34' W 122°44'0 0.0
2018-Jun-16 07:29N 45°34' W 122°44'0 0.0
2018-Jun-16 06:59N 45°34' W 122°44'0 0.4
2018-Jun-16 06:31N 45°34' W 122°44'3 6.7
2018-Jun-16 06:00N 45°37' W 122°47'3 6.5
2018-Jun-16 05:30N 45°40' W 122°46'3 5.4
2018-Jun-16 05:00N 45°42' W 122°46'3 5.6
2018-Jun-16 04:28N 45°46' W 122°46'3 5.7
2018-Jun-16 03:54N 45°49' W 122°47'2 5.8
2018-Jun-16 03:30N 45°51' W 122°47'2 3.5
2018-Jun-16 03:00N 45°50' W 122°49'2 4.2
2018-Jun-16 02:30N 45°48' W 122°50'0 0.4
2018-Jun-16 01:51N 45°48' W 122°51'0 0.0
2018-Jun-16 01:30N 45°48' W 122°51'0 0.0
2018-Jun-16 01:00N 45°48' W 122°51'0 0.0
2018-Jun-16 00:30N 45°48' W 122°51'0 0.0
2018-Jun-15 23:42N 45°48' W 122°51'0 0.0
2018-Jun-15 23:30N 45°48' W 122°51'0 0.0
2018-Jun-15 23:00N 45°48' W 122°51'0 0.2
2018-Jun-15 22:28N 45°48' W 122°51'2 3.8
2018-Jun-15 22:00N 45°49' W 122°50'2 5.0
2018-Jun-15 21:30N 45°51' W 122°47'510.0
2018-Jun-15 21:00N 45°46' W 122°46'510.3
2018-Jun-15 20:30N 45°41' W 122°46'4 8.4
2018-Jun-15 20:00N 45°37' W 122°47'4 7.9
2018-Jun-15 19:30N 45°34' W 122°44'0 0.1
2018-Jun-15 18:58N 45°34' W 122°44'0 0.0
2018-Jun-15 18:28N 45°34' W 122°44'0 0.0
2018-Jun-15 17:58N 45°34' W 122°44'0 0.0
2018-Jun-15 17:28N 45°34' W 122°44'0 0.0
2018-Jun-15 16:58N 45°34' W 122°44'0 0.0
2018-Jun-15 16:25N 45°34' W 122°44'0 0.0
2018-Jun-15 15:49N 45°34' W 122°44'0 0.0
2018-Jun-15 15:28N 45°34' W 122°44'0 0.0
2018-Jun-15 14:55N 45°34' W 122°44'0 0.0
2018-Jun-15 14:28N 45°34' W 122°44'0 0.0
2018-Jun-15 13:58N 45°34' W 122°44'0 0.1
2018-Jun-15 13:28N 45°34' W 122°44'3 5.9
2018-Jun-15 13:00N 45°35' W 122°46'3 6.8
2018-Jun-15 12:30N 45°39' W 122°46'3 6.4
2018-Jun-15 12:00N 45°42' W 122°46'3 6.3
2018-Jun-15 11:30N 45°45' W 122°46'3 6.2
2018-Jun-15 11:00N 45°48' W 122°47'3 5.8
2018-Jun-15 10:30N 45°51' W 122°47'4 4.0
2018-Jun-15 09:37N 45°48' W 122°50'0 2.8
2018-Jun-15 09:31N 45°48' W 122°50'1 1.0
2018-Jun-15 08:59N 45°48' W 122°51'0 0.1
2018-Jun-15 08:23N 45°48' W 122°51'0 0.0
2018-Jun-15 07:56N 45°48' W 122°51'0 0.0
2018-Jun-15 06:53N 45°48' W 122°51'0 0.0
2018-Jun-15 06:29N 45°48' W 122°51'0 0.0
2018-Jun-15 05:53N 45°48' W 122°51'0 0.0
2018-Jun-15 05:29N 45°48' W 122°51'0 0.0
2018-Jun-15 04:56N 45°48' W 122°51'0 0.1
2018-Jun-15 04:30N 45°48' W 122°51'3 5.2
2018-Jun-15 04:00N 45°50' W 122°49'5 4.9
2018-Jun-15 03:04N 45°46' W 122°46'1 9.9
2018-Jun-15 03:00N 45°45' W 122°46'5 9.6
2018-Jun-15 02:30N 45°40' W 122°46'2 4.8
2018-Jun-15 02:00N 45°39' W 122°44'3 4.9
2018-Jun-15 01:21N 45°37' W 122°47'3 7.8
2018-Jun-15 01:00N 45°35' W 122°45'3 6.1
2018-Jun-15 00:30N 45°33' W 122°41'0 0.0
2018-Jun-14 20:18N 45°33' W 122°41'1 4.7
2018-Jun-14 20:00N 45°34' W 122°43'4 7.8
2018-Jun-14 19:31N 45°36' W 122°47'3 6.1
2018-Jun-14 19:01N 45°39' W 122°45'1 1.1
2018-Jun-14 18:30N 45°39' W 122°44'2 4.8
2018-Jun-14 18:00N 45°41' W 122°46'3 5.7
2018-Jun-14 17:30N 45°44' W 122°46'3 5.4
2018-Jun-14 17:01N 45°46' W 122°46'3 5.2
2018-Jun-14 16:30N 45°49' W 122°47'3 5.1
2018-Jun-14 16:01N 45°51' W 122°47'2 4.5
2018-Jun-14 15:30N 45°49' W 122°49'1 2.7
2018-Jun-14 15:00N 45°48' W 122°50'1 1.2
2018-Jun-14 14:21N 45°48' W 122°51'0 0.0
2018-Jun-14 14:00N 45°48' W 122°51'0 0.0
2018-Jun-14 13:30N 45°48' W 122°51'0 0.0
2018-Jun-14 12:54N 45°48' W 122°51'0 0.0
2018-Jun-14 12:30N 45°48' W 122°51'0 0.0
2018-Jun-14 12:00N 45°48' W 122°51'0 0.0
2018-Jun-14 11:30N 45°48' W 122°51'0 0.0
2018-Jun-14 11:00N 45°48' W 122°51'0 0.0
2018-Jun-14 10:30N 45°48' W 122°51'0 0.0
2018-Jun-14 09:54N 45°48' W 122°51'0 0.0
2018-Jun-14 09:27N 45°48' W 122°51'0 0.0
2018-Jun-14 09:00N 45°48' W 122°51'0 0.0
2018-Jun-14 08:30N 45°48' W 122°51'0 0.0
2018-Jun-14 07:57N 45°48' W 122°51'0 0.0
2018-Jun-14 07:30N 45°48' W 122°51'0 0.0
2018-Jun-14 06:57N 45°48' W 122°51'0 0.0
2018-Jun-14 06:24N 45°48' W 122°51'0 0.0
2018-Jun-14 05:54N 45°48' W 122°51'0 0.0
2018-Jun-14 05:18N 45°48' W 122°51'0 0.0
2018-Jun-14 04:57N 45°48' W 122°51'0 0.0
2018-Jun-14 04:30N 45°48' W 122°51'0 0.0
2018-Jun-14 03:48N 45°48' W 122°51'2 4.5
2018-Jun-14 03:18N 45°50' W 122°49'0 0.5
2018-Jun-14 03:01N 45°50' W 122°49'1 2.0
2018-Jun-14 02:31N 45°50' W 122°47'510.0
2018-Jun-14 02:00N 45°45' W 122°46'5 9.9
2018-Jun-14 01:30N 45°40' W 122°46'2 4.4
2018-Jun-14 01:00N 45°39' W 122°44'0 0.0
2018-Jun-14 00:30N 45°39' W 122°44'0 0.0
2018-Jun-14 00:00N 45°39' W 122°44'0 0.0
2018-Jun-13 23:24N 45°39' W 122°44'0 0.0
2018-Jun-13 23:00N 45°39' W 122°44'0 0.0
2018-Jun-13 22:27N 45°39' W 122°44'0 0.0
2018-Jun-13 22:00N 45°39' W 122°44'0 0.0
2018-Jun-13 21:30N 45°39' W 122°44'0 0.0
2018-Jun-13 21:00N 45°39' W 122°44'0 0.0
2018-Jun-13 20:30N 45°39' W 122°44'1 2.9
2018-Jun-13 20:00N 45°39' W 122°45'3 5.5
2018-Jun-13 19:30N 45°42' W 122°46'3 5.4
2018-Jun-13 19:00N 45°45' W 122°46'3 5.2
2018-Jun-13 18:29N 45°47' W 122°47'2 5.1
2018-Jun-13 18:00N 45°50' W 122°48'2 3.0
2018-Jun-13 17:30N 45°51' W 122°48'3 4.7
2018-Jun-13 16:51N 45°48' W 122°49'1 2.9
2018-Jun-13 16:31N 45°48' W 122°50'0 0.4
2018-Jun-13 16:00N 45°48' W 122°51'0 0.1
2018-Jun-13 15:30N 45°48' W 122°51'0 0.0
2018-Jun-13 15:00N 45°48' W 122°51'0 0.0
2018-Jun-13 14:24N 45°48' W 122°51'0 0.0
2018-Jun-13 14:00N 45°48' W 122°51'0 0.0
2018-Jun-13 13:27N 45°48' W 122°51'0 0.0
2018-Jun-13 12:54N 45°48' W 122°51'0 0.0
2018-Jun-13 12:30N 45°48' W 122°51'0 0.0
2018-Jun-13 11:54N 45°48' W 122°51'0 0.1
2018-Jun-13 11:24N 45°48' W 122°51'1 2.8
2018-Jun-13 10:57N 45°48' W 122°49'1 1.8
2018-Jun-13 10:30N 45°49' W 122°50'2 5.0
2018-Jun-13 10:00N 45°51' W 122°47'4 9.0
2018-Jun-13 09:30N 45°47' W 122°46'5 9.6
2018-Jun-13 09:00N 45°42' W 122°46'4 8.7
2018-Jun-13 08:30N 45°38' W 122°43'5 9.8
2018-Jun-13 08:00N 45°36' W 122°36'610.5
2018-Jun-13 07:29N 45°35' W 122°29'2 3.1
2018-Jun-13 06:54N 45°34' W 122°27'0 0.0
2018-Jun-13 06:12N 45°34' W 122°27'0 0.0
2018-Jun-13 05:54N 45°34' W 122°27'0 0.0
2018-Jun-13 05:30N 45°34' W 122°27'0 0.0
2018-Jun-13 04:54N 45°34' W 122°27'0 0.0
2018-Jun-13 04:30N 45°34' W 122°27'0 0.0
2018-Jun-13 03:51N 45°34' W 122°27'0 0.0
2018-Jun-13 03:27N 45°34' W 122°27'0 0.0
2018-Jun-13 03:00N 45°34' W 122°27'0 0.0
2018-Jun-13 02:21N 45°34' W 122°27'0 0.0
2018-Jun-13 02:00N 45°34' W 122°27'0 0.2
2018-Jun-13 01:15N 45°34' W 122°27'1 2.7
2018-Jun-13 00:59N 45°34' W 122°28'2 4.7
2018-Jun-13 00:29N 45°35' W 122°31'2 4.8
2018-Jun-13 00:00N 45°36' W 122°34'2 4.5
2018-Jun-12 23:30N 45°36' W 122°37'2 4.6
2018-Jun-12 23:00N 45°37' W 122°40'2 4.8
2018-Jun-12 22:30N 45°38' W 122°43'2 4.9
2018-Jun-12 22:00N 45°40' W 122°46'3 5.1
2018-Jun-12 21:26N 45°43' W 122°46'2 5.2
2018-Jun-12 21:00N 45°45' W 122°46'3 5.0
2018-Jun-12 20:30N 45°47' W 122°47'2 4.9
2018-Jun-12 20:00N 45°50' W 122°48'2 3.6
2018-Jun-12 19:30N 45°51' W 122°48'3 6.8
2018-Jun-12 19:00N 45°48' W 122°50'1 2.1
2018-Jun-12 18:30N 45°48' W 122°51'0 0.6
2018-Jun-12 18:00N 45°48' W 122°50'0 0.4
2018-Jun-12 17:20N 45°48' W 122°51'0 0.0
2018-Jun-12 16:59N 45°48' W 122°51'  

Dump ship's entire track history